createdAt,value
2019-05-19T00:00:11.923Z,100070.95
2019-05-19T00:01:48.456Z,100064.95
2019-05-19T00:03:23.151Z,100064.95
2019-05-19T00:04:58.380Z,100064.29
2019-05-19T00:06:33.065Z,100071.22
2019-05-19T00:08:08.389Z,100067.22
2019-05-19T00:09:43.071Z,100066.03
2019-05-19T00:11:18.250Z,100073.21
2019-05-19T00:12:52.998Z,100059.62
2019-05-19T00:14:28.210Z,100059.62
2019-05-19T00:16:03.201Z,100060.21
2019-05-19T00:17:38.591Z,100062.90
2019-05-19T00:19:25.894Z,100061.03
2019-05-19T00:20:50.231Z,100062.11
2019-05-19T00:22:24.899Z,100051.55
2019-05-19T00:24:00.118Z,100061.36
2019-05-19T00:25:35.954Z,100057.28
2019-05-19T00:27:11.143Z,100058.70
2019-05-19T00:28:45.885Z,100058.70
2019-05-19T00:30:21.212Z,100060.00
2019-05-19T00:31:55.881Z,100065.44
2019-05-19T00:33:31.151Z,100065.44
2019-05-19T00:35:06.086Z,100063.36
2019-05-19T00:36:41.294Z,100064.19
2019-05-19T00:38:15.995Z,100051.63
2019-05-19T00:39:51.214Z,100045.44
2019-05-19T00:41:25.858Z,100045.44
2019-05-19T00:43:01.071Z,100057.03
2019-05-19T00:44:35.800Z,100047.56
2019-05-19T00:46:11.078Z,100032.59
2019-05-19T00:47:46.782Z,100032.59
2019-05-19T00:49:22.244Z,100047.92
2019-05-19T00:50:56.948Z,100048.44
2019-05-19T00:52:33.836Z,100054.39
2019-05-19T00:54:08.508Z,100054.39
2019-05-19T00:55:43.817Z,100053.36
2019-05-19T00:57:18.659Z,100045.52
2019-05-19T00:58:54.953Z,100045.52
2019-05-19T01:00:29.697Z,100043.31
2019-05-19T01:02:04.918Z,100041.25
2019-05-19T01:03:39.651Z,100041.25
2019-05-19T01:05:14.902Z,100041.18
2019-05-19T01:06:49.617Z,100043.71
2019-05-19T01:08:24.839Z,100028.10
2019-05-19T01:09:59.486Z,100033.14
2019-05-19T01:11:34.722Z,100033.14
2019-05-19T01:13:09.362Z,100038.24
2019-05-19T01:14:44.673Z,100042.40
2019-05-19T01:16:19.470Z,100042.27
2019-05-19T01:17:55.836Z,100042.27
2019-05-19T01:19:30.497Z,100035.31
2019-05-19T01:21:05.801Z,100026.55
2019-05-19T01:22:40.843Z,100035.80
2019-05-19T01:24:16.135Z,100022.34
2019-05-19T01:25:50.808Z,100033.70
2019-05-19T01:27:26.066Z,100032.92
2019-05-19T01:29:00.714Z,100027.34
2019-05-19T01:30:36.061Z,100026.27
2019-05-19T01:32:10.734Z,100026.27
2019-05-19T01:33:45.946Z,100026.00
2019-05-19T01:35:20.662Z,100026.87
2019-05-19T01:36:55.876Z,100026.58
2019-05-19T01:38:30.544Z,100015.14
2019-05-19T01:40:06.198Z,100023.44
2019-05-19T01:41:40.859Z,100017.13
2019-05-19T01:43:16.158Z,100018.86
2019-05-19T01:44:50.828Z,100023.98
2019-05-19T01:46:26.236Z,100021.33
2019-05-19T01:48:00.866Z,100022.40
2019-05-19T01:49:36.075Z,100018.12
2019-05-19T01:51:10.748Z,100014.25
2019-05-19T01:52:46.988Z,100006.48
2019-05-19T01:54:21.646Z,99993.95
2019-05-19T01:55:56.856Z,99993.95
2019-05-19T01:57:31.554Z,100009.59
2019-05-19T01:59:07.914Z,100006.95
2019-05-19T02:00:42.714Z,100004.06
2019-05-19T02:02:17.937Z,100006.25
2019-05-19T02:03:52.587Z,100002.58
2019-05-19T02:05:27.804Z,100001.78
2019-05-19T02:07:02.587Z,100008.72
2019-05-19T02:08:37.815Z,100011.43
2019-05-19T02:10:14.510Z,100010.52
2019-05-19T02:11:49.761Z,100005.27
2019-05-19T02:13:24.422Z,100012.54
2019-05-19T02:14:59.623Z,100018.17
2019-05-19T02:16:34.295Z,100017.19
2019-05-19T02:18:09.575Z,100016.39
2019-05-19T02:19:44.268Z,100016.13
2019-05-19T02:21:19.498Z,100018.05
2019-05-19T02:22:54.143Z,100015.70
2019-05-19T02:24:29.411Z,100011.97
2019-05-19T02:26:05.121Z,100013.70
2019-05-19T02:27:40.625Z,100013.70
2019-05-19T02:29:15.278Z,100013.47
2019-05-19T02:30:50.513Z,100011.32
2019-05-19T02:32:25.187Z,100011.32
2019-05-19T02:34:00.473Z,100006.83
2019-05-19T02:35:35.130Z,100006.83
2019-05-19T02:37:10.352Z,100012.09
2019-05-19T02:38:45.133Z,100018.64
2019-05-19T02:40:21.367Z,100016.17
2019-05-19T02:41:57.609Z,100016.17
2019-05-19T02:43:33.260Z,100019.10
2019-05-19T02:45:08.180Z,100017.95
2019-05-19T02:46:43.446Z,100024.70
2019-05-19T02:48:19.092Z,100024.70
2019-05-19T02:49:56.114Z,100034.95
2019-05-19T02:51:32.031Z,100031.02
2019-05-19T02:53:07.827Z,100032.12
2019-05-19T02:54:43.163Z,100022.10
2019-05-19T02:56:18.485Z,100030.41
2019-05-19T02:57:53.660Z,100016.34
2019-05-19T02:59:30.619Z,100016.34
2019-05-19T03:01:05.276Z,100030.83
2019-05-19T03:02:40.467Z,100030.16
2019-05-19T03:04:15.148Z,100027.23
2019-05-19T03:05:50.379Z,100030.63
2019-05-19T03:07:25.049Z,100030.67
2019-05-19T03:09:00.273Z,100039.73
2019-05-19T03:10:34.994Z,100032.01
2019-05-19T03:12:10.279Z,100030.09
2019-05-19T03:13:44.924Z,100028.70
2019-05-19T03:15:20.270Z,100031.19
2019-05-19T03:16:55.196Z,100036.31
2019-05-19T03:18:30.416Z,100030.91
2019-05-19T03:20:05.197Z,100034.91
2019-05-19T03:21:40.415Z,100035.38
2019-05-19T03:23:15.075Z,100033.77
2019-05-19T03:24:50.310Z,100028.16
2019-05-19T03:26:25.035Z,100033.38
2019-05-19T03:28:00.251Z,100027.95
2019-05-19T03:29:39.248Z,100027.80
2019-05-19T03:31:24.359Z,100031.44
2019-05-19T03:33:01.375Z,100032.11
2019-05-19T03:34:37.104Z,100035.66
2019-05-19T03:36:12.318Z,100023.52
2019-05-19T03:37:46.998Z,100023.52
2019-05-19T03:39:22.212Z,100028.90
2019-05-19T03:40:56.980Z,100028.90
2019-05-19T03:42:32.247Z,100027.30
2019-05-19T03:44:06.974Z,100029.11
2019-05-19T03:45:42.171Z,100026.47
2019-05-19T03:47:16.842Z,100030.33
2019-05-19T03:48:52.053Z,100032.72
2019-05-19T03:50:26.747Z,100037.52
2019-05-19T03:52:01.960Z,100034.59
2019-05-19T03:53:36.630Z,100037.61
2019-05-19T03:55:12.113Z,100036.84
2019-05-19T03:56:46.985Z,100033.59
2019-05-19T03:58:22.200Z,100033.52
2019-05-19T03:59:56.849Z,100041.06
2019-05-19T04:01:32.095Z,100026.05
2019-05-19T04:03:06.838Z,100026.05
2019-05-19T04:04:42.062Z,100039.03
2019-05-19T04:06:16.724Z,100043.90
2019-05-19T04:07:51.952Z,100035.54
2019-05-19T04:09:26.946Z,100038.19
2019-05-19T04:11:02.189Z,100040.95
2019-05-19T04:12:36.901Z,100045.27
2019-05-19T04:14:12.148Z,100040.78
2019-05-19T04:15:46.795Z,100041.12
2019-05-19T04:17:22.982Z,100041.12
2019-05-19T04:18:57.662Z,100041.93
2019-05-19T04:20:32.917Z,100042.19
2019-05-19T04:22:07.684Z,100050.46
2019-05-19T04:23:42.947Z,100047.48
2019-05-19T04:25:17.613Z,100061.07
2019-05-19T04:26:52.820Z,100059.05
2019-05-19T04:28:27.540Z,100056.11
2019-05-19T04:30:02.774Z,100056.11
2019-05-19T04:31:37.434Z,100070.45
2019-05-19T04:33:12.678Z,100055.23
2019-05-19T04:34:47.347Z,100055.23
2019-05-19T04:36:22.566Z,100061.36
2019-05-19T04:37:57.258Z,100061.36
2019-05-19T04:39:32.503Z,100056.29
2019-05-19T04:41:07.207Z,100061.77
2019-05-19T04:42:42.431Z,100067.11
2019-05-19T04:44:17.080Z,100067.11
2019-05-19T04:45:52.394Z,100061.41
2019-05-19T04:47:27.047Z,100060.91
2019-05-19T04:49:02.267Z,100061.00
2019-05-19T04:50:38.021Z,100060.58
2019-05-19T04:52:13.345Z,100064.49
2019-05-19T04:53:48.009Z,100064.49
2019-05-19T04:55:23.238Z,100062.80
2019-05-19T04:56:57.895Z,100071.11
2019-05-19T04:58:38.166Z,100065.43
2019-05-19T05:00:13.481Z,100065.43
2019-05-19T05:01:48.726Z,100061.88
2019-05-19T05:03:23.392Z,100068.30
2019-05-19T05:04:58.612Z,100072.61
2019-05-19T05:06:33.307Z,100071.39
2019-05-19T05:08:08.605Z,100072.23
2019-05-19T05:09:43.269Z,100076.27
2019-05-19T05:11:18.503Z,100075.57
2019-05-19T05:12:53.175Z,100073.25
2019-05-19T05:14:28.468Z,100076.44
2019-05-19T05:16:03.154Z,100072.62
2019-05-19T05:17:38.382Z,100072.60
2019-05-19T05:19:13.152Z,100074.18
2019-05-19T05:20:48.370Z,100072.23
2019-05-19T05:22:23.047Z,100073.20
2019-05-19T05:23:58.252Z,100073.20
2019-05-19T05:25:32.983Z,100073.20
2019-05-19T05:27:08.181Z,100067.72
2019-05-19T05:28:42.867Z,100067.57
2019-05-19T05:30:18.152Z,100066.14
2019-05-19T05:31:52.843Z,100067.41
2019-05-19T05:33:28.082Z,100063.91
2019-05-19T05:35:03.865Z,100055.52
2019-05-19T05:36:39.150Z,100058.65
2019-05-19T05:38:13.872Z,100069.11
2019-05-19T05:39:49.072Z,100069.02
2019-05-19T05:41:23.719Z,100063.80
2019-05-19T05:42:58.998Z,100066.50
2019-05-19T05:44:33.653Z,100072.27
2019-05-19T05:46:08.872Z,100064.16
2019-05-19T05:47:43.515Z,100070.72
2019-05-19T05:49:18.843Z,100066.05
2019-05-19T05:50:53.493Z,100071.98
2019-05-19T05:52:38.169Z,100070.55
2019-05-19T05:54:05.160Z,100070.70
2019-05-19T05:55:40.381Z,100073.87
2019-05-19T05:57:15.010Z,100078.02
2019-05-19T05:58:50.345Z,100078.30
2019-05-19T06:00:25.286Z,100074.19
2019-05-19T06:02:00.506Z,100079.28
2019-05-19T06:03:35.196Z,100082.37
2019-05-19T06:05:11.078Z,100073.21
2019-05-19T06:06:45.974Z,100066.42
2019-05-19T06:08:21.330Z,100064.91
2019-05-19T06:09:55.991Z,100065.45
2019-05-19T06:11:31.201Z,100060.27
2019-05-19T06:13:05.867Z,100059.62
2019-05-19T06:14:41.121Z,100062.16
2019-05-19T06:16:15.774Z,100060.50
2019-05-19T06:17:51.039Z,100063.84
2019-05-19T06:19:25.731Z,100065.19
2019-05-19T06:21:00.934Z,100058.95
2019-05-19T06:22:35.605Z,100058.15
2019-05-19T06:24:10.811Z,100052.73
2019-05-19T06:25:45.568Z,100058.64
2019-05-19T06:27:20.786Z,100052.98
2019-05-19T06:28:56.553Z,100053.55
2019-05-19T06:30:31.822Z,100054.70
2019-05-19T06:32:14.117Z,100050.63
2019-05-19T06:33:49.329Z,100049.19
2019-05-19T06:35:24.967Z,100050.48
2019-05-19T06:37:00.185Z,100061.68
2019-05-19T06:38:35.109Z,100064.56
2019-05-19T06:40:10.752Z,100059.48
2019-05-19T06:41:45.362Z,100059.11
2019-05-19T06:43:20.565Z,100061.33
2019-05-19T06:44:55.255Z,100060.59
2019-05-19T06:46:30.473Z,100057.49
2019-05-19T06:48:05.271Z,100056.23
2019-05-19T06:49:40.478Z,100057.64
2019-05-19T06:51:15.106Z,100061.09
2019-05-19T06:52:50.301Z,100053.48
2019-05-19T06:54:24.946Z,100060.38
2019-05-19T06:56:00.272Z,100059.67
2019-05-19T06:57:34.914Z,100057.15
2019-05-19T06:59:10.124Z,100052.83
2019-05-19T07:00:44.846Z,100052.56
2019-05-19T07:02:20.145Z,100054.91
2019-05-19T07:03:54.785Z,100059.06
2019-05-19T07:05:29.995Z,100054.16
2019-05-19T07:07:04.754Z,100058.33
2019-05-19T07:08:40.061Z,100050.49
2019-05-19T07:10:14.797Z,100050.09
2019-05-19T07:11:49.994Z,100054.29
2019-05-19T07:13:24.666Z,100051.59
2019-05-19T07:14:59.962Z,100051.50
2019-05-19T07:16:34.570Z,100053.92
2019-05-19T07:18:09.802Z,100049.48
2019-05-19T07:19:44.419Z,100057.17
2019-05-19T07:21:19.654Z,100056.64
2019-05-19T07:22:54.299Z,100062.72
2019-05-19T07:24:29.508Z,100064.28
2019-05-19T07:26:04.312Z,100056.27
2019-05-19T07:27:40.895Z,100053.62
2019-05-19T07:29:15.559Z,100053.92
2019-05-19T07:30:50.777Z,100059.52
2019-05-19T07:32:25.416Z,100059.71
2019-05-19T07:34:00.720Z,100059.41
2019-05-19T07:35:35.357Z,100049.39
2019-05-19T07:37:10.550Z,100049.38
2019-05-19T07:38:45.194Z,100052.50
2019-05-19T07:40:20.647Z,100046.52
2019-05-19T07:41:55.266Z,100053.05
2019-05-19T07:43:30.507Z,100040.25
2019-05-19T07:45:05.971Z,100044.59
2019-05-19T07:46:41.175Z,100036.44
2019-05-19T07:48:15.895Z,100042.39
2019-05-19T07:49:51.116Z,100047.70
2019-05-19T07:51:25.777Z,100036.55
2019-05-19T07:53:01.080Z,100039.55
2019-05-19T07:54:35.748Z,100037.34
2019-05-19T07:56:11.617Z,100034.75
2019-05-19T07:57:46.542Z,100038.20
2019-05-19T07:59:21.737Z,100040.81
2019-05-19T08:00:56.359Z,100042.08
2019-05-19T08:02:31.757Z,100042.36
2019-05-19T08:04:06.408Z,100048.94
2019-05-19T08:05:41.657Z,100035.05
2019-05-19T08:07:16.395Z,100039.42
2019-05-19T08:08:51.609Z,100037.77
2019-05-19T08:10:26.362Z,100036.98
2019-05-19T08:12:01.764Z,100044.15
2019-05-19T08:13:36.480Z,100035.67
2019-05-19T08:15:12.249Z,100045.31
2019-05-19T08:16:46.913Z,100031.45
2019-05-19T08:18:22.111Z,100028.03
2019-05-19T08:19:56.763Z,100032.28
2019-05-19T08:21:32.046Z,100029.09
2019-05-19T08:23:06.679Z,100026.73
2019-05-19T08:24:41.869Z,100023.23
2019-05-19T08:26:16.543Z,100014.59
2019-05-19T08:27:51.757Z,100017.05
2019-05-19T08:29:26.421Z,100014.67
2019-05-19T08:31:01.605Z,100017.71
2019-05-19T08:32:37.368Z,100019.81
2019-05-19T08:34:12.720Z,100028.59
2019-05-19T08:35:47.410Z,100024.23
2019-05-19T08:37:23.597Z,100023.34
2019-05-19T08:38:58.227Z,100020.42
2019-05-19T08:40:33.450Z,100022.54
2019-05-19T08:42:08.093Z,100018.92
2019-05-19T08:43:43.298Z,100017.53
2019-05-19T08:45:18.037Z,100027.05
2019-05-19T08:46:53.237Z,100016.91
2019-05-19T08:48:29.276Z,100014.63
2019-05-19T08:50:05.270Z,100014.77
2019-05-19T08:51:40.259Z,100016.40
2019-05-19T08:53:15.446Z,100017.20
2019-05-19T08:54:50.093Z,100012.11
2019-05-19T08:56:26.408Z,100014.86
2019-05-19T08:58:01.052Z,100010.54
2019-05-19T08:59:36.258Z,100004.57
2019-05-19T09:01:10.975Z,100010.73
2019-05-19T09:02:46.119Z,100005.41
2019-05-19T09:04:20.780Z,100002.26
2019-05-19T09:05:55.993Z,100001.98
2019-05-19T09:07:30.662Z,100011.58
2019-05-19T09:09:06.981Z,100004.25
2019-05-19T09:10:41.655Z,100003.77
2019-05-19T09:12:16.879Z,100003.27
2019-05-19T09:13:51.539Z,100008.62
2019-05-19T09:15:26.807Z,100004.19
2019-05-19T09:17:01.619Z,100000.34
2019-05-19T09:18:36.850Z,99996.16
2019-05-19T09:20:11.838Z,99994.47
2019-05-19T09:21:47.059Z,99992.14
2019-05-19T09:23:21.878Z,99986.77
2019-05-19T09:24:57.084Z,99983.98
2019-05-19T09:26:31.737Z,99984.90
2019-05-19T09:28:06.943Z,99985.64
2019-05-19T09:29:41.578Z,99975.07
2019-05-19T09:31:16.875Z,99979.95
2019-05-19T09:32:51.591Z,99981.59
2019-05-19T09:34:26.796Z,99974.92
2019-05-19T09:36:01.437Z,99969.81
2019-05-19T09:37:36.630Z,99974.14
2019-05-19T09:39:12.904Z,99974.73
2019-05-19T09:40:48.130Z,99968.25
2019-05-19T09:42:22.883Z,99970.30
2019-05-19T09:43:58.134Z,99968.23
2019-05-19T09:45:32.755Z,99959.69
2019-05-19T09:47:07.979Z,99961.63
2019-05-19T09:48:42.698Z,99963.37
2019-05-19T09:50:17.984Z,99959.79
2019-05-19T09:51:52.774Z,99961.06
2019-05-19T09:53:28.130Z,99954.59
2019-05-19T09:55:02.715Z,99967.66
2019-05-19T09:56:37.903Z,99953.73
2019-05-19T09:58:16.955Z,99949.88
2019-05-19T09:59:49.483Z,99956.27
2019-05-19T10:01:24.138Z,99949.70
2019-05-19T10:02:59.334Z,99947.52
2019-05-19T10:04:33.973Z,99944.62
2019-05-19T10:06:09.182Z,99951.74
2019-05-19T10:07:43.836Z,99950.80
2019-05-19T10:09:57.381Z,99946.08
2019-05-19T10:11:59.173Z,99950.28
2019-05-19T10:13:37.589Z,99947.73
2019-05-19T10:15:11.997Z,99941.45
2019-05-19T10:16:47.395Z,99945.66
2019-05-19T10:18:22.061Z,99946.97
2019-05-19T10:19:57.424Z,99948.48
2019-05-19T10:21:32.180Z,99941.00
2019-05-19T10:23:07.429Z,99941.84
2019-05-19T10:24:56.322Z,99944.63
2019-05-19T10:26:19.142Z,99950.42
2019-05-19T10:27:53.976Z,99942.09
2019-05-19T10:29:29.151Z,99943.70
2019-05-19T10:31:03.809Z,99945.29
2019-05-19T10:32:39.286Z,99945.27
2019-05-19T10:34:15.225Z,99947.25
2019-05-19T10:35:50.445Z,99943.91
2019-05-19T10:37:25.282Z,99943.83
2019-05-19T10:39:00.464Z,99933.85
2019-05-19T10:40:36.775Z,99938.31
2019-05-19T10:42:11.976Z,99943.93
2019-05-19T10:43:48.732Z,99928.11
2019-05-19T10:45:24.007Z,99932.69
2019-05-19T10:46:58.657Z,99933.20
2019-05-19T10:48:33.856Z,99943.66
2019-05-19T10:50:08.681Z,99936.32
2019-05-19T10:51:43.860Z,99936.30
2019-05-19T10:53:19.775Z,99935.59
2019-05-19T10:54:54.991Z,99930.99
2019-05-19T10:56:29.692Z,99936.33
2019-05-19T10:58:04.877Z,99939.37
2019-05-19T10:59:39.543Z,99933.50
2019-05-19T11:01:16.171Z,99930.94
2019-05-19T11:02:51.164Z,99935.54
2019-05-19T11:04:26.449Z,99934.36
2019-05-19T11:06:01.128Z,99932.97
2019-05-19T11:07:36.378Z,99925.27
2019-05-19T11:09:11.016Z,99923.34
2019-05-19T11:10:46.319Z,99916.72
2019-05-19T11:12:20.924Z,99913.14
2019-05-19T11:13:56.151Z,99933.20
2019-05-19T11:15:30.794Z,99922.65
2019-05-19T11:17:05.992Z,99922.47
2019-05-19T11:18:40.661Z,99916.23
2019-05-19T11:20:16.085Z,99930.16
2019-05-19T11:21:52.414Z,99918.97
2019-05-19T11:23:27.623Z,99923.88
2019-05-19T11:25:02.298Z,99917.87
2019-05-19T11:26:37.514Z,99922.66
2019-05-19T11:28:12.179Z,99916.66
2019-05-19T11:29:47.347Z,99917.87
2019-05-19T11:31:21.991Z,99915.16
2019-05-19T11:32:57.197Z,99920.72
2019-05-19T11:34:31.842Z,99913.13
2019-05-19T11:36:07.076Z,99909.87
2019-05-19T11:37:41.723Z,99920.33
2019-05-19T11:39:16.934Z,99908.28
2019-05-19T11:40:51.976Z,99907.55
2019-05-19T11:42:27.185Z,99909.30
2019-05-19T11:44:01.914Z,99915.95
2019-05-19T11:45:37.271Z,99906.89
2019-05-19T11:47:11.905Z,99907.13
2019-05-19T11:48:47.226Z,99908.13
2019-05-19T11:50:21.873Z,99910.95
2019-05-19T11:51:57.064Z,99905.77
2019-05-19T11:53:31.693Z,99921.53
2019-05-19T11:55:07.252Z,99912.98
2019-05-19T11:56:41.894Z,99907.13
2019-05-19T11:58:17.154Z,99904.77
2019-05-19T11:59:51.818Z,99887.14
2019-05-19T12:01:27.052Z,99886.84
2019-05-19T12:03:01.691Z,99895.11
2019-05-19T12:04:36.921Z,99885.38
2019-05-19T12:06:11.651Z,99880.55
2019-05-19T12:07:46.852Z,99893.97
2019-05-19T12:09:21.481Z,99892.20
2019-05-19T12:10:56.831Z,99889.95
2019-05-19T12:12:31.470Z,99890.06
2019-05-19T12:14:06.678Z,99892.38
2019-05-19T12:15:41.313Z,99886.81
2019-05-19T12:17:16.518Z,99895.91
2019-05-19T12:18:51.211Z,99877.75
2019-05-19T12:20:26.414Z,99877.87
2019-05-19T12:22:01.064Z,99878.58
2019-05-19T12:23:37.371Z,99869.31
2019-05-19T12:25:12.192Z,99881.82
2019-05-19T12:26:47.379Z,99876.88
2019-05-19T12:28:22.409Z,99870.65
2019-05-19T12:29:57.625Z,99868.02
2019-05-19T12:31:32.264Z,99869.55
2019-05-19T12:33:08.444Z,99884.99
2019-05-19T12:34:43.140Z,99870.77
2019-05-19T12:36:18.337Z,99886.34
2019-05-19T12:37:53.029Z,99876.71
2019-05-19T12:39:28.246Z,99868.80
2019-05-19T12:41:02.870Z,99872.32
2019-05-19T12:42:38.111Z,99859.27
2019-05-19T12:44:12.751Z,99863.66
2019-05-19T12:45:48.063Z,99872.66
2019-05-19T12:47:22.673Z,99860.59
2019-05-19T12:48:59.803Z,99856.63
2019-05-19T12:50:34.448Z,99854.41
2019-05-19T12:52:09.717Z,99858.53
2019-05-19T12:53:44.366Z,99851.67
2019-05-19T12:55:19.731Z,99859.61
2019-05-19T12:56:55.643Z,99855.58
2019-05-19T12:58:30.849Z,99850.66
2019-05-19T13:00:06.592Z,99850.88
2019-05-19T13:01:42.930Z,99857.11
2019-05-19T13:03:17.660Z,99843.45
2019-05-19T13:05:04.506Z,99846.38
2019-05-19T13:06:30.015Z,99853.50
2019-05-19T13:08:05.312Z,99842.48
2019-05-19T13:09:40.188Z,99837.96
2019-05-19T13:11:15.444Z,99839.77
2019-05-19T13:12:58.974Z,99840.83
2019-05-19T13:14:32.349Z,99835.55
2019-05-19T13:16:06.991Z,99840.53
2019-05-19T13:17:42.188Z,99837.23
2019-05-19T13:19:17.983Z,99839.84
2019-05-19T13:20:53.226Z,99847.59
2019-05-19T13:22:27.964Z,99837.73
2019-05-19T13:24:03.232Z,99862.03
2019-05-19T13:25:37.881Z,99825.09
2019-05-19T13:27:13.117Z,99830.38
2019-05-19T13:28:47.812Z,99827.99
2019-05-19T13:30:23.085Z,99832.14
2019-05-19T13:31:57.717Z,99835.61
2019-05-19T13:33:32.909Z,99836.84
2019-05-19T13:35:08.253Z,99828.48
2019-05-19T13:36:43.482Z,99829.05
2019-05-19T13:38:18.118Z,99835.46
2019-05-19T13:39:53.311Z,99829.81
2019-05-19T13:41:27.929Z,99827.52
2019-05-19T13:43:03.133Z,99832.54
2019-05-19T13:44:38.883Z,99837.64
2019-05-19T13:46:14.424Z,99833.13
2019-05-19T13:47:49.085Z,99827.69
2019-05-19T13:49:25.458Z,99828.66
2019-05-19T13:51:01.893Z,99828.63
2019-05-19T13:52:39.116Z,99828.20
2019-05-19T13:54:13.769Z,99831.09
2019-05-19T13:55:48.953Z,99826.14
2019-05-19T13:57:23.606Z,99825.37
2019-05-19T13:58:58.821Z,99832.95
2019-05-19T14:00:33.534Z,99822.83
2019-05-19T14:02:08.860Z,99829.25
2019-05-19T14:03:43.522Z,99828.27
2019-05-19T14:05:18.814Z,99822.23
2019-05-19T14:06:53.837Z,99828.64
2019-05-19T14:08:29.039Z,99825.55
2019-05-19T14:10:03.974Z,99815.41
2019-05-19T14:11:39.198Z,99822.64
2019-05-19T14:13:13.839Z,99821.65
2019-05-19T14:14:50.024Z,99817.16
2019-05-19T14:16:24.672Z,99814.23
2019-05-19T14:17:59.848Z,99826.84
2019-05-19T14:19:34.645Z,99830.03
2019-05-19T14:21:10.506Z,99825.91
2019-05-19T14:22:45.139Z,99816.14
2019-05-19T14:24:20.489Z,99821.59
2019-05-19T14:25:55.107Z,99825.46
2019-05-19T14:27:31.090Z,99827.18
2019-05-19T14:29:05.791Z,99829.26
2019-05-19T14:30:40.979Z,99829.59
2019-05-19T14:32:15.626Z,99827.72
2019-05-19T14:33:51.008Z,99830.73
2019-05-19T14:35:25.795Z,99827.02
2019-05-19T14:37:02.882Z,99822.91
2019-05-19T14:38:41.575Z,99830.95
2019-05-19T14:40:17.583Z,99837.22
2019-05-19T14:41:56.382Z,99833.31
2019-05-19T14:43:31.600Z,99835.66
2019-05-19T14:45:07.815Z,99837.23
2019-05-19T14:46:43.016Z,99825.53
2019-05-19T14:48:17.688Z,99828.41
2019-05-19T14:49:52.906Z,99829.20
2019-05-19T14:51:27.636Z,99820.89
2019-05-19T14:53:02.877Z,99836.08
2019-05-19T14:54:37.592Z,99839.98
2019-05-19T14:56:13.173Z,99831.77
2019-05-19T14:57:49.106Z,99825.94
2019-05-19T14:59:24.314Z,99836.81
2019-05-19T15:00:59.005Z,99828.28
2019-05-19T15:02:34.260Z,99823.98
2019-05-19T15:04:08.916Z,99830.94
2019-05-19T15:05:44.579Z,99828.67
2019-05-19T15:07:19.275Z,99824.98
2019-05-19T15:08:54.570Z,99825.73
2019-05-19T15:10:29.197Z,99819.92
2019-05-19T15:12:04.399Z,99833.55
2019-05-19T15:13:39.031Z,99821.01
2019-05-19T15:15:14.986Z,99820.63
2019-05-19T15:16:49.631Z,99815.36
2019-05-19T15:18:24.831Z,99817.87
2019-05-19T15:19:59.481Z,99814.55
2019-05-19T15:21:34.686Z,99826.39
2019-05-19T15:23:09.325Z,99822.38
2019-05-19T15:24:44.595Z,99817.50
2019-05-19T15:26:19.235Z,99819.58
2019-05-19T15:28:00.229Z,99817.63
2019-05-19T15:29:30.810Z,99818.41
2019-05-19T15:31:06.021Z,99814.15
2019-05-19T15:32:40.936Z,99815.03
2019-05-19T15:34:16.113Z,99813.66
2019-05-19T15:35:50.783Z,99814.08
2019-05-19T15:37:25.998Z,99815.23
2019-05-19T15:39:01.744Z,99815.28
2019-05-19T15:40:37.895Z,99810.74
2019-05-19T15:42:12.589Z,99808.68
2019-05-19T15:43:47.798Z,99810.83
2019-05-19T15:45:22.616Z,99808.88
2019-05-19T15:46:58.880Z,99798.86
2019-05-19T15:48:33.652Z,99803.84
2019-05-19T15:50:09.326Z,99799.83
2019-05-19T15:51:59.128Z,99794.39
2019-05-19T15:53:20.864Z,99796.67
2019-05-19T15:54:55.533Z,99798.95
2019-05-19T15:56:30.740Z,99793.03
2019-05-19T15:58:16.010Z,99796.30
2019-05-19T15:59:44.207Z,99791.98
2019-05-19T16:01:18.827Z,99784.05
2019-05-19T16:02:54.039Z,99786.56
2019-05-19T16:04:28.698Z,99785.92
2019-05-19T16:06:05.344Z,99785.20
2019-05-19T16:07:41.036Z,99781.34
2019-05-19T16:09:16.284Z,99780.03
2019-05-19T16:10:51.013Z,99777.30
2019-05-19T16:12:26.333Z,99781.94
2019-05-19T16:14:00.979Z,99782.41
2019-05-19T16:15:36.185Z,99777.41
2019-05-19T16:17:10.879Z,99778.97
2019-05-19T16:18:46.032Z,99777.95
2019-05-19T16:20:20.758Z,99771.09
2019-05-19T16:21:55.947Z,99773.30
2019-05-19T16:23:30.616Z,99773.02
2019-05-19T16:25:06.368Z,99771.72
2019-05-19T16:26:41.015Z,99768.19
2019-05-19T16:28:28.654Z,99766.00
2019-05-19T16:29:52.546Z,99764.72
2019-05-19T16:31:27.815Z,99767.95
2019-05-19T16:33:02.448Z,99770.03
2019-05-19T16:34:37.719Z,99759.97
2019-05-19T16:36:12.468Z,99760.54
2019-05-19T16:37:48.821Z,99761.69
2019-05-19T16:39:23.552Z,99758.93
2019-05-19T16:40:58.746Z,99762.42
2019-05-19T16:42:33.506Z,99761.41
2019-05-19T16:44:08.715Z,99760.67
2019-05-19T16:45:43.356Z,99761.44
2019-05-19T16:47:18.547Z,99758.95
2019-05-19T16:48:53.194Z,99759.29
2019-05-19T16:50:28.380Z,99761.92
2019-05-19T16:52:03.032Z,99763.48
2019-05-19T16:53:38.370Z,99761.03
2019-05-19T16:55:38.222Z,99758.09
2019-05-19T16:57:12.865Z,99752.16
2019-05-19T16:58:48.073Z,99755.89
2019-05-19T17:00:23.755Z,99753.33
2019-05-19T17:02:00.245Z,99759.42
2019-05-19T17:03:34.840Z,99750.09
2019-05-19T17:05:22.702Z,99755.23
2019-05-19T17:06:57.892Z,99755.92
2019-05-19T17:08:34.014Z,99762.13
2019-05-19T17:10:09.660Z,99755.67
2019-05-19T17:11:44.318Z,99759.84
2019-05-19T17:13:19.506Z,99753.93
2019-05-19T17:14:54.150Z,99760.23
2019-05-19T17:16:29.331Z,99755.00
2019-05-19T17:18:04.113Z,99752.66
2019-05-19T17:19:39.297Z,99758.19
2019-05-19T17:21:17.065Z,99754.59
2019-05-19T17:23:14.622Z,99760.50
2019-05-19T17:24:50.049Z,99764.48
2019-05-19T17:26:24.746Z,99757.43
2019-05-19T17:27:59.952Z,99757.43
2019-05-19T17:29:34.582Z,99756.64
2019-05-19T17:31:09.819Z,99753.78
2019-05-19T17:32:44.540Z,99759.81
2019-05-19T17:34:19.735Z,99760.80
2019-05-19T17:35:54.554Z,99765.90
2019-05-19T17:37:29.766Z,99765.52
2019-05-19T17:39:06.471Z,99761.34
2019-05-19T17:40:41.735Z,99763.94
2019-05-19T17:42:16.371Z,99764.54
2019-05-19T17:43:51.562Z,99767.59
2019-05-19T17:45:26.274Z,99763.27
2019-05-19T17:47:01.465Z,99769.67
2019-05-19T17:48:36.167Z,99760.45
2019-05-19T17:50:34.024Z,99764.46
2019-05-19T17:52:09.396Z,99762.21
2019-05-19T17:53:44.084Z,99763.81
2019-05-19T17:55:19.303Z,99771.84
2019-05-19T17:56:54.113Z,99760.80
2019-05-19T17:58:29.751Z,99769.55
2019-05-19T18:00:05.060Z,99774.05
2019-05-19T18:01:40.246Z,99766.01
2019-05-19T18:03:14.875Z,99780.08
2019-05-19T18:04:53.236Z,99773.05
2019-05-19T18:06:29.756Z,99775.30
2019-05-19T18:08:06.209Z,99774.89
2019-05-19T18:09:40.955Z,99780.20
2019-05-19T18:11:16.204Z,99777.56
2019-05-19T18:12:50.893Z,99781.70
2019-05-19T18:14:26.120Z,99778.39
2019-05-19T18:16:00.757Z,99778.70
2019-05-19T18:17:36.032Z,99775.94
2019-05-19T18:19:10.660Z,99774.37
2019-05-19T18:20:47.097Z,99779.05
2019-05-19T18:22:21.901Z,99776.44
2019-05-19T18:23:57.082Z,99777.70